sensor_id;sensor_type;location;lat;lon;timestamp;temperature;humidity
19437;DHT22;9854;50.968;4.168;2022-07-21T00:00:21;19.70;99.90
19437;DHT22;9854;50.968;4.168;2022-07-21T00:02:47;19.50;99.90
19437;DHT22;9854;50.968;4.168;2022-07-21T00:05:13;19.40;99.90
19437;DHT22;9854;50.968;4.168;2022-07-21T00:07:38;19.50;99.90
19437;DHT22;9854;50.968;4.168;2022-07-21T00:10:04;19.70;99.90
19437;DHT22;9854;50.968;4.168;2022-07-21T00:12:30;19.70;99.90
19437;DHT22;9854;50.968;4.168;2022-07-21T00:14:56;19.80;99.90
19437;DHT22;9854;50.968;4.168;2022-07-21T00:17:21;19.70;99.90
19437;DHT22;9854;50.968;4.168;2022-07-21T00:19:47;19.70;99.90
19437;DHT22;9854;50.968;4.168;2022-07-21T00:22:13;19.60;99.90
19437;DHT22;9854;50.968;4.168;2022-07-21T00:24:38;19.60;99.90
19437;DHT22;9854;50.968;4.168;2022-07-21T00:27:04;19.60;99.90
19437;DHT22;9854;50.968;4.168;2022-07-21T00:29:30;19.60;99.90
19437;DHT22;9854;50.968;4.168;2022-07-21T00:31:55;19.50;99.90
19437;DHT22;9854;50.968;4.168;2022-07-21T00:34:21;19.50;99.90
19437;DHT22;9854;50.968;4.168;2022-07-21T00:36:46;19.50;99.90
19437;DHT22;9854;50.968;4.168;2022-07-21T00:39:12;19.50;99.90
19437;DHT22;9854;50.968;4.168;2022-07-21T00:41:38;19.40;99.90
19437;DHT22;9854;50.968;4.168;2022-07-21T00:44:03;19.50;99.90
19437;DHT22;9854;50.968;4.168;2022-07-21T00:46:29;19.60;99.90
19437;DHT22;9854;50.968;4.168;2022-07-21T00:48:55;19.80;99.90
19437;DHT22;9854;50.968;4.168;2022-07-21T00:51:21;19.70;99.90
19437;DHT22;9854;50.968;4.168;2022-07-21T00:53:47;19.50;99.90
19437;DHT22;9854;50.968;4.168;2022-07-21T00:56:12;19.60;99.90
19437;DHT22;9854;50.968;4.168;2022-07-21T00:58:40;19.50;99.90
19437;DHT22;9854;50.968;4.168;2022-07-21T01:01:06;19.30;99.90
19437;DHT22;9854;50.968;4.168;2022-07-21T01:03:31;19.30;99.90
19437;DHT22;9854;50.968;4.168;2022-07-21T01:05:58;19.30;99.90
19437;DHT22;9854;50.968;4.168;2022-07-21T01:08:24;19.40;99.90
19437;DHT22;9854;50.968;4.168;2022-07-21T01:10:52;19.30;99.90
19437;DHT22;9854;50.968;4.168;2022-07-21T01:13:18;19.60;99.90
19437;DHT22;9854;50.968;4.168;2022-07-21T01:15:44;19.70;99.90
19437;DHT22;9854;50.968;4.168;2022-07-21T01:18:10;19.70;99.90
19437;DHT22;9854;50.968;4.168;2022-07-21T01:20:35;19.70;99.90
19437;DHT22;9854;50.968;4.168;2022-07-21T01:23:02;19.60;99.90
19437;DHT22;9854;50.968;4.168;2022-07-21T01:25:28;19.40;99.90
19437;DHT22;9854;50.968;4.168;2022-07-21T01:27:53;19.40;99.90
19437;DHT22;9854;50.968;4.168;2022-07-21T01:30:19;19.30;99.90
19437;DHT22;9854;50.968;4.168;2022-07-21T01:32:45;19.30;99.90
19437;DHT22;9854;50.968;4.168;2022-07-21T01:35:12;19.10;99.90
19437;DHT22;9854;50.968;4.168;2022-07-21T01:37:42;19.00;99.90
19437;DHT22;9854;50.968;4.168;2022-07-21T01:40:09;18.90;99.90
19437;DHT22;9854;50.968;4.168;2022-07-21T01:42:53;19.20;99.90
19437;DHT22;9854;50.968;4.168;2022-07-21T01:45:20;19.00;99.90
19437;DHT22;9854;50.968;4.168;2022-07-21T01:47:46;19.10;99.90
19437;DHT22;9854;50.968;4.168;2022-07-21T01:50:12;19.20;99.90
19437;DHT22;9854;50.968;4.168;2022-07-21T01:52:37;19.40;99.90
19437;DHT22;9854;50.968;4.168;2022-07-21T01:55:03;19.30;99.90
19437;DHT22;9854;50.968;4.168;2022-07-21T01:57:29;19.20;99.90
19437;DHT22;9854;50.968;4.168;2022-07-21T01:59:55;19.20;99.90
19437;DHT22;9854;50.968;4.168;2022-07-21T02:02:20;19.10;99.90
19437;DHT22;9854;50.968;4.168;2022-07-21T02:04:48;19.20;99.90
19437;DHT22;9854;50.968;4.168;2022-07-21T02:07:13;19.40;99.90
19437;DHT22;9854;50.968;4.168;2022-07-21T02:09:39;19.40;99.90
19437;DHT22;9854;50.968;4.168;2022-07-21T02:12:05;19.30;99.90
19437;DHT22;9854;50.968;4.168;2022-07-21T02:14:31;19.20;99.90
19437;DHT22;9854;50.968;4.168;2022-07-21T02:16:57;19.10;99.90
19437;DHT22;9854;50.968;4.168;2022-07-21T02:19:22;19.30;99.90
19437;DHT22;9854;50.968;4.168;2022-07-21T02:21:48;19.40;99.90
19437;DHT22;9854;50.968;4.168;2022-07-21T02:24:14;19.30;99.90
19437;DHT22;9854;50.968;4.168;2022-07-21T02:26:39;19.30;99.90
19437;DHT22;9854;50.968;4.168;2022-07-21T02:29:05;19.50;99.90
19437;DHT22;9854;50.968;4.168;2022-07-21T02:31:31;19.40;99.90
19437;DHT22;9854;50.968;4.168;2022-07-21T02:33:56;19.40;99.90
19437;DHT22;9854;50.968;4.168;2022-07-21T02:36:22;19.20;99.90
19437;DHT22;9854;50.968;4.168;2022-07-21T02:38:47;19.20;99.90
19437;DHT22;9854;50.968;4.168;2022-07-21T02:41:13;19.10;99.90
19437;DHT22;9854;50.968;4.168;2022-07-21T02:43:39;19.10;99.90
19437;DHT22;9854;50.968;4.168;2022-07-21T02:46:04;19.20;99.90
19437;DHT22;9854;50.968;4.168;2022-07-21T02:48:30;19.20;99.90
19437;DHT22;9854;50.968;4.168;2022-07-21T02:50:56;19.20;99.90
19437;DHT22;9854;50.968;4.168;2022-07-21T02:53:21;19.00;99.90
19437;DHT22;9854;50.968;4.168;2022-07-21T02:55:50;19.10;99.90
19437;DHT22;9854;50.968;4.168;2022-07-21T02:58:20;19.10;99.90
19437;DHT22;9854;50.968;4.168;2022-07-21T03:00:54;19.10;99.90
19437;DHT22;9854;50.968;4.168;2022-07-21T03:03:22;19.20;99.90
19437;DHT22;9854;50.968;4.168;2022-07-21T03:05:49;19.20;99.90
19437;DHT22;9854;50.968;4.168;2022-07-21T03:08:15;19.00;99.90
19437;DHT22;9854;50.968;4.168;2022-07-21T03:10:42;18.90;99.90
19437;DHT22;9854;50.968;4.168;2022-07-21T03:13:07;18.90;99.90
19437;DHT22;9854;50.968;4.168;2022-07-21T03:15:34;18.90;99.90
19437;DHT22;9854;50.968;4.168;2022-07-21T03:18:00;18.90;99.90
19437;DHT22;9854;50.968;4.168;2022-07-21T03:20:28;19.10;99.90
19437;DHT22;9854;50.968;4.168;2022-07-21T03:22:54;19.10;99.90
19437;DHT22;9854;50.968;4.168;2022-07-21T03:25:20;19.00;99.90
19437;DHT22;9854;50.968;4.168;2022-07-21T03:27:47;18.90;99.90
19437;DHT22;9854;50.968;4.168;2022-07-21T03:30:13;18.80;99.90
19437;DHT22;9854;50.968;4.168;2022-07-21T03:32:40;18.70;99.90
19437;DHT22;9854;50.968;4.168;2022-07-21T03:35:07;19.00;99.90
19437;DHT22;9854;50.968;4.168;2022-07-21T03:37:43;18.90;99.90
19437;DHT22;9854;50.968;4.168;2022-07-21T03:40:11;18.90;99.90
19437;DHT22;9854;50.968;4.168;2022-07-21T03:42:37;18.90;99.90
19437;DHT22;9854;50.968;4.168;2022-07-21T03:45:04;18.90;99.90
19437;DHT22;9854;50.968;4.168;2022-07-21T03:47:29;18.90;99.90
19437;DHT22;9854;50.968;4.168;2022-07-21T03:49:55;19.10;99.90
19437;DHT22;9854;50.968;4.168;2022-07-21T03:52:21;19.00;99.90
19437;DHT22;9854;50.968;4.168;2022-07-21T03:54:46;19.10;99.90
19437;DHT22;9854;50.968;4.168;2022-07-21T03:57:12;19.10;99.90
19437;DHT22;9854;50.968;4.168;2022-07-21T03:59:37;19.20;99.90
19437;DHT22;9854;50.968;4.168;2022-07-21T04:02:03;19.10;99.90
19437;DHT22;9854;50.968;4.168;2022-07-21T04:04:29;19.20;99.90
19437;DHT22;9854;50.968;4.168;2022-07-21T04:06:54;19.20;99.90
19437;DHT22;9854;50.968;4.168;2022-07-21T04:09:20;19.20;99.90
19437;DHT22;9854;50.968;4.168;2022-07-21T04:11:46;19.20;99.90
19437;DHT22;9854;50.968;4.168;2022-07-21T04:14:11;19.20;99.90
19437;DHT22;9854;50.968;4.168;2022-07-21T04:16:37;19.20;99.90
19437;DHT22;9854;50.968;4.168;2022-07-21T04:19:02;19.20;99.90
19437;DHT22;9854;50.968;4.168;2022-07-21T04:21:28;19.20;99.90
19437;DHT22;9854;50.968;4.168;2022-07-21T04:23:53;19.30;99.90
19437;DHT22;9854;50.968;4.168;2022-07-21T04:26:19;19.30;99.90
19437;DHT22;9854;50.968;4.168;2022-07-21T04:28:45;19.20;99.90
19437;DHT22;9854;50.968;4.168;2022-07-21T04:31:10;19.20;99.90
19437;DHT22;9854;50.968;4.168;2022-07-21T04:33:36;19.10;99.90
19437;DHT22;9854;50.968;4.168;2022-07-21T04:36:02;19.20;99.90
19437;DHT22;9854;50.968;4.168;2022-07-21T04:38:27;19.10;99.90
19437;DHT22;9854;50.968;4.168;2022-07-21T04:40:53;19.00;99.90
19437;DHT22;9854;50.968;4.168;2022-07-21T04:43:18;18.90;99.90
19437;DHT22;9854;50.968;4.168;2022-07-21T04:45:44;19.00;99.90
19437;DHT22;9854;50.968;4.168;2022-07-21T04:48:10;19.00;99.90
19437;DHT22;9854;50.968;4.168;2022-07-21T04:50:35;19.20;99.90
19437;DHT22;9854;50.968;4.168;2022-07-21T04:53:01;19.20;99.90
19437;DHT22;9854;50.968;4.168;2022-07-21T04:55:26;19.20;99.90
19437;DHT22;9854;50.968;4.168;2022-07-21T04:57:53;19.30;99.90
19437;DHT22;9854;50.968;4.168;2022-07-21T05:00:21;19.30;99.90
19437;DHT22;9854;50.968;4.168;2022-07-21T05:02:49;19.10;99.90
19437;DHT22;9854;50.968;4.168;2022-07-21T05:05:15;19.10;99.90
19437;DHT22;9854;50.968;4.168;2022-07-21T05:07:41;19.00;99.90
19437;DHT22;9854;50.968;4.168;2022-07-21T05:10:09;19.00;99.90
19437;DHT22;9854;50.968;4.168;2022-07-21T05:12:35;18.80;99.90
19437;DHT22;9854;50.968;4.168;2022-07-21T05:15:02;18.80;99.90
19437;DHT22;9854;50.968;4.168;2022-07-21T05:17:27;18.80;99.90
19437;DHT22;9854;50.968;4.168;2022-07-21T05:19:53;19.00;99.90
19437;DHT22;9854;50.968;4.168;2022-07-21T05:22:19;18.80;99.90
19437;DHT22;9854;50.968;4.168;2022-07-21T05:24:44;18.90;99.90
19437;DHT22;9854;50.968;4.168;2022-07-21T05:27:11;18.80;99.90
19437;DHT22;9854;50.968;4.168;2022-07-21T05:29:37;18.70;99.90
19437;DHT22;9854;50.968;4.168;2022-07-21T05:32:03;18.80;99.90
19437;DHT22;9854;50.968;4.168;2022-07-21T05:34:29;18.90;99.90
19437;DHT22;9854;50.968;4.168;2022-07-21T05:36:54;18.80;99.90
19437;DHT22;9854;50.968;4.168;2022-07-21T05:39:20;18.80;99.90
19437;DHT22;9854;50.968;4.168;2022-07-21T05:41:46;18.70;99.90
19437;DHT22;9854;50.968;4.168;2022-07-21T05:44:11;18.70;99.90
19437;DHT22;9854;50.968;4.168;2022-07-21T05:46:37;18.60;99.90
19437;DHT22;9854;50.968;4.168;2022-07-21T05:49:03;18.60;99.90
19437;DHT22;9854;50.968;4.168;2022-07-21T05:51:29;18.70;99.90
19437;DHT22;9854;50.968;4.168;2022-07-21T05:53:54;18.80;99.90
19437;DHT22;9854;50.968;4.168;2022-07-21T05:56:20;18.90;99.90
19437;DHT22;9854;50.968;4.168;2022-07-21T05:58:45;18.90;99.90
19437;DHT22;9854;50.968;4.168;2022-07-21T06:01:11;18.70;99.90
19437;DHT22;9854;50.968;4.168;2022-07-21T06:03:47;18.70;99.90
19437;DHT22;9854;50.968;4.168;2022-07-21T06:06:14;18.60;99.90
19437;DHT22;9854;50.968;4.168;2022-07-21T06:08:43;18.50;99.90
19437;DHT22;9854;50.968;4.168;2022-07-21T06:11:10;18.40;99.90
19437;DHT22;9854;50.968;4.168;2022-07-21T06:13:37;18.50;99.90
19437;DHT22;9854;50.968;4.168;2022-07-21T06:16:03;18.40;99.90
19437;DHT22;9854;50.968;4.168;2022-07-21T06:18:29;18.50;99.90
19437;DHT22;9854;50.968;4.168;2022-07-21T06:20:55;18.50;99.90
19437;DHT22;9854;50.968;4.168;2022-07-21T06:23:20;18.50;99.90
19437;DHT22;9854;50.968;4.168;2022-07-21T06:25:46;18.50;99.90
19437;DHT22;9854;50.968;4.168;2022-07-21T06:28:12;18.60;99.90
19437;DHT22;9854;50.968;4.168;2022-07-21T06:30:38;18.60;99.90
19437;DHT22;9854;50.968;4.168;2022-07-21T06:33:04;18.60;99.90
19437;DHT22;9854;50.968;4.168;2022-07-21T06:35:30;18.60;99.90
19437;DHT22;9854;50.968;4.168;2022-07-21T06:37:55;18.60;99.90
19437;DHT22;9854;50.968;4.168;2022-07-21T06:40:21;18.70;99.90
19437;DHT22;9854;50.968;4.168;2022-07-21T06:42:47;18.60;99.90
19437;DHT22;9854;50.968;4.168;2022-07-21T06:45:12;18.70;99.90
19437;DHT22;9854;50.968;4.168;2022-07-21T06:47:38;18.70;99.90
19437;DHT22;9854;50.968;4.168;2022-07-21T06:50:04;18.70;99.90
19437;DHT22;9854;50.968;4.168;2022-07-21T06:52:31;18.70;99.90
19437;DHT22;9854;50.968;4.168;2022-07-21T06:54:57;18.80;99.90
19437;DHT22;9854;50.968;4.168;2022-07-21T06:57:23;18.90;99.90
19437;DHT22;9854;50.968;4.168;2022-07-21T06:59:49;18.70;99.90
19437;DHT22;9854;50.968;4.168;2022-07-21T07:02:15;18.70;99.90
19437;DHT22;9854;50.968;4.168;2022-07-21T07:04:41;18.70;99.90
19437;DHT22;9854;50.968;4.168;2022-07-21T07:07:07;18.70;99.90
19437;DHT22;9854;50.968;4.168;2022-07-21T07:09:32;18.80;99.90
19437;DHT22;9854;50.968;4.168;2022-07-21T07:11:58;18.80;99.90
19437;DHT22;9854;50.968;4.168;2022-07-21T07:14:29;18.90;99.90
19437;DHT22;9854;50.968;4.168;2022-07-21T07:16:55;18.80;99.90
19437;DHT22;9854;50.968;4.168;2022-07-21T07:19:21;18.80;99.90
19437;DHT22;9854;50.968;4.168;2022-07-21T07:21:47;18.80;99.90
19437;DHT22;9854;50.968;4.168;2022-07-21T07:24:12;18.80;99.90
19437;DHT22;9854;50.968;4.168;2022-07-21T07:26:38;18.80;99.90
19437;DHT22;9854;50.968;4.168;2022-07-21T07:29:03;18.90;99.90
19437;DHT22;9854;50.968;4.168;2022-07-21T07:31:29;19.00;99.90
19437;DHT22;9854;50.968;4.168;2022-07-21T07:33:55;18.90;99.90
19437;DHT22;9854;50.968;4.168;2022-07-21T07:36:25;19.00;99.90
19437;DHT22;9854;50.968;4.168;2022-07-21T07:38:55;19.00;99.90
19437;DHT22;9854;50.968;4.168;2022-07-21T07:41:21;19.00;99.90
19437;DHT22;9854;50.968;4.168;2022-07-21T07:43:48;19.10;99.90
19437;DHT22;9854;50.968;4.168;2022-07-21T07:46:13;19.10;99.90
19437;DHT22;9854;50.968;4.168;2022-07-21T07:48:40;19.10;99.90
19437;DHT22;9854;50.968;4.168;2022-07-21T07:51:07;19.10;99.90
19437;DHT22;9854;50.968;4.168;2022-07-21T07:53:33;19.10;99.90
19437;DHT22;9854;50.968;4.168;2022-07-21T07:55:59;19.10;99.90
19437;DHT22;9854;50.968;4.168;2022-07-21T07:58:25;19.10;99.90
19437;DHT22;9854;50.968;4.168;2022-07-21T08:00:51;19.10;99.90
19437;DHT22;9854;50.968;4.168;2022-07-21T08:03:16;19.10;99.90
19437;DHT22;9854;50.968;4.168;2022-07-21T08:05:42;19.20;99.90
19437;DHT22;9854;50.968;4.168;2022-07-21T08:08:08;19.20;99.90
19437;DHT22;9854;50.968;4.168;2022-07-21T08:10:34;19.30;99.90
19437;DHT22;9854;50.968;4.168;2022-07-21T08:13:00;19.20;99.90
19437;DHT22;9854;50.968;4.168;2022-07-21T08:15:25;19.20;99.90
19437;DHT22;9854;50.968;4.168;2022-07-21T08:17:51;19.30;99.90
19437;DHT22;9854;50.968;4.168;2022-07-21T08:20:17;19.10;99.90
19437;DHT22;9854;50.968;4.168;2022-07-21T08:22:42;19.10;99.90
19437;DHT22;9854;50.968;4.168;2022-07-21T08:25:08;19.00;99.90
19437;DHT22;9854;50.968;4.168;2022-07-21T08:27:34;18.90;99.90
19437;DHT22;9854;50.968;4.168;2022-07-21T08:29:59;18.80;99.90
19437;DHT22;9854;50.968;4.168;2022-07-21T08:32:25;18.70;99.90
19437;DHT22;9854;50.968;4.168;2022-07-21T08:34:51;18.70;99.90
19437;DHT22;9854;50.968;4.168;2022-07-21T08:37:19;18.50;99.90
19437;DHT22;9854;50.968;4.168;2022-07-21T08:39:45;18.50;99.90
19437;DHT22;9854;50.968;4.168;2022-07-21T08:42:13;18.50;99.90
19437;DHT22;9854;50.968;4.168;2022-07-21T08:44:39;18.40;99.90
19437;DHT22;9854;50.968;4.168;2022-07-21T08:47:05;18.40;99.90
19437;DHT22;9854;50.968;4.168;2022-07-21T08:49:35;18.30;99.90
19437;DHT22;9854;50.968;4.168;2022-07-21T08:52:02;18.30;99.90
19437;DHT22;9854;50.968;4.168;2022-07-21T08:54:28;18.20;99.90
19437;DHT22;9854;50.968;4.168;2022-07-21T08:56:54;18.40;99.90
19437;DHT22;9854;50.968;4.168;2022-07-21T08:59:20;18.30;99.90
19437;DHT22;9854;50.968;4.168;2022-07-21T09:01:48;18.40;99.90
19437;DHT22;9854;50.968;4.168;2022-07-21T09:06:58;18.40;99.90
19437;DHT22;9854;50.968;4.168;2022-07-21T09:09:25;18.30;99.90
19437;DHT22;9854;50.968;4.168;2022-07-21T09:11:52;18.40;99.90
19437;DHT22;9854;50.968;4.168;2022-07-21T09:14:21;18.40;99.90
19437;DHT22;9854;50.968;4.168;2022-07-21T09:17:13;18.40;99.90
19437;DHT22;9854;50.968;4.168;2022-07-21T09:19:44;18.30;99.90
19437;DHT22;9854;50.968;4.168;2022-07-21T09:22:16;18.20;99.90
19437;DHT22;9854;50.968;4.168;2022-07-21T09:24:49;18.20;99.90
19437;DHT22;9854;50.968;4.168;2022-07-21T09:27:17;18.10;99.90
19437;DHT22;9854;50.968;4.168;2022-07-21T09:32:21;18.10;99.90
19437;DHT22;9854;50.968;4.168;2022-07-21T09:35:09;18.00;99.90
19437;DHT22;9854;50.968;4.168;2022-07-21T09:37:37;18.00;99.90
19437;DHT22;9854;50.968;4.168;2022-07-21T09:40:08;18.10;99.90
19437;DHT22;9854;50.968;4.168;2022-07-21T09:42:43;18.10;99.90
19437;DHT22;9854;50.968;4.168;2022-07-21T09:45:15;18.10;99.90
19437;DHT22;9854;50.968;4.168;2022-07-21T09:47:43;18.20;99.90
19437;DHT22;9854;50.968;4.168;2022-07-21T09:50:11;18.30;99.90
19437;DHT22;9854;50.968;4.168;2022-07-21T09:52:40;18.30;99.90
19437;DHT22;9854;50.968;4.168;2022-07-21T09:55:11;18.40;99.90
19437;DHT22;9854;50.968;4.168;2022-07-21T09:57:38;18.40;99.90
19437;DHT22;9854;50.968;4.168;2022-07-21T10:00:08;18.50;99.90
19437;DHT22;9854;50.968;4.168;2022-07-21T10:02:34;18.50;99.90
19437;DHT22;9854;50.968;4.168;2022-07-21T10:05:13;18.60;99.90
19437;DHT22;9854;50.968;4.168;2022-07-21T10:07:42;18.70;99.90
19437;DHT22;9854;50.968;4.168;2022-07-21T10:10:08;18.80;99.90
19437;DHT22;9854;50.968;4.168;2022-07-21T10:12:34;18.90;99.90
19437;DHT22;9854;50.968;4.168;2022-07-21T10:15:00;19.10;99.90
19437;DHT22;9854;50.968;4.168;2022-07-21T10:17:26;19.40;99.90
19437;DHT22;9854;50.968;4.168;2022-07-21T10:25:25;19.40;99.90
19437;DHT22;9854;50.968;4.168;2022-07-21T10:30:39;19.80;99.90
19437;DHT22;9854;50.968;4.168;2022-07-21T10:33:05;20.00;99.90
19437;DHT22;9854;50.968;4.168;2022-07-21T10:35:32;20.00;99.90
19437;DHT22;9854;50.968;4.168;2022-07-21T10:38:02;20.10;99.90
19437;DHT22;9854;50.968;4.168;2022-07-21T10:45:36;19.70;99.90
19437;DHT22;9854;50.968;4.168;2022-07-21T10:48:05;19.60;99.90
19437;DHT22;9854;50.968;4.168;2022-07-21T10:50:36;19.50;99.90
19437;DHT22;9854;50.968;4.168;2022-07-21T10:53:04;19.40;99.90
19437;DHT22;9854;50.968;4.168;2022-07-21T10:55:35;19.30;99.90
19437;DHT22;9854;50.968;4.168;2022-07-21T11:00:59;19.10;99.90
19437;DHT22;9854;50.968;4.168;2022-07-21T11:08:35;19.10;99.90
19437;DHT22;9854;50.968;4.168;2022-07-21T11:11:09;19.20;99.90
19437;DHT22;9854;50.968;4.168;2022-07-21T11:13:57;19.20;99.90
19437;DHT22;9854;50.968;4.168;2022-07-21T11:19:43;19.30;99.90
19437;DHT22;9854;50.968;4.168;2022-07-21T11:22:25;19.30;99.90
19437;DHT22;9854;50.968;4.168;2022-07-21T11:25:03;19.30;99.90
19437;DHT22;9854;50.968;4.168;2022-07-21T11:27:37;19.30;99.90
19437;DHT22;9854;50.968;4.168;2022-07-21T11:30:07;19.10;99.90
19437;DHT22;9854;50.968;4.168;2022-07-21T11:32:33;19.00;99.90
19437;DHT22;9854;50.968;4.168;2022-07-21T11:35:01;19.00;99.90
19437;DHT22;9854;50.968;4.168;2022-07-21T11:37:46;19.00;99.90
19437;DHT22;9854;50.968;4.168;2022-07-21T11:40:16;18.90;99.90
19437;DHT22;9854;50.968;4.168;2022-07-21T11:42:45;18.90;99.90
19437;DHT22;9854;50.968;4.168;2022-07-21T11:45:11;19.00;99.90
19437;DHT22;9854;50.968;4.168;2022-07-21T11:47:38;19.20;99.90
19437;DHT22;9854;50.968;4.168;2022-07-21T11:50:06;19.30;99.90
19437;DHT22;9854;50.968;4.168;2022-07-21T11:52:35;19.30;99.90
19437;DHT22;9854;50.968;4.168;2022-07-21T11:55:03;19.30;99.90
19437;DHT22;9854;50.968;4.168;2022-07-21T11:57:29;19.40;99.90
19437;DHT22;9854;50.968;4.168;2022-07-21T11:59:56;19.40;99.90
19437;DHT22;9854;50.968;4.168;2022-07-21T12:02:24;19.30;99.90
19437;DHT22;9854;50.968;4.168;2022-07-21T12:04:58;19.20;99.90
19437;DHT22;9854;50.968;4.168;2022-07-21T12:10:06;19.10;99.90
19437;DHT22;9854;50.968;4.168;2022-07-21T12:15:21;19.00;99.90
19437;DHT22;9854;50.968;4.168;2022-07-21T12:17:59;19.00;99.90
19437;DHT22;9854;50.968;4.168;2022-07-21T12:20:41;19.00;99.90
19437;DHT22;9854;50.968;4.168;2022-07-21T12:23:27;18.90;99.90
19437;DHT22;9854;50.968;4.168;2022-07-21T12:25:54;18.90;99.90
19437;DHT22;9854;50.968;4.168;2022-07-21T12:28:20;18.90;99.90
19437;DHT22;9854;50.968;4.168;2022-07-21T12:30:50;18.80;99.90
19437;DHT22;9854;50.968;4.168;2022-07-21T12:33:18;18.70;99.90
19437;DHT22;9854;50.968;4.168;2022-07-21T12:38:38;18.50;99.90
19437;DHT22;9854;50.968;4.168;2022-07-21T12:41:05;18.50;99.90
19437;DHT22;9854;50.968;4.168;2022-07-21T12:43:30;18.60;99.90
19437;DHT22;9854;50.968;4.168;2022-07-21T12:46:15;18.70;99.90
19437;DHT22;9854;50.968;4.168;2022-07-21T12:48:43;18.60;99.90
19437;DHT22;9854;50.968;4.168;2022-07-21T12:51:23;18.60;99.90
19437;DHT22;9854;50.968;4.168;2022-07-21T12:53:50;18.60;99.90
19437;DHT22;9854;50.968;4.168;2022-07-21T12:56:24;18.60;99.90
19437;DHT22;9854;50.968;4.168;2022-07-21T12:58:51;18.70;99.90
19437;DHT22;9854;50.968;4.168;2022-07-21T13:01:18;18.70;99.90
19437;DHT22;9854;50.968;4.168;2022-07-21T13:03:44;18.80;99.90
19437;DHT22;9854;50.968;4.168;2022-07-21T13:06:10;18.90;99.90
19437;DHT22;9854;50.968;4.168;2022-07-21T13:08:39;18.90;99.90
19437;DHT22;9854;50.968;4.168;2022-07-21T13:11:06;19.00;99.90
19437;DHT22;9854;50.968;4.168;2022-07-21T13:13:32;19.00;99.90
19437;DHT22;9854;50.968;4.168;2022-07-21T13:15:58;19.00;99.90
19437;DHT22;9854;50.968;4.168;2022-07-21T13:18:24;19.00;99.90
19437;DHT22;9854;50.968;4.168;2022-07-21T13:20:51;19.10;99.90
19437;DHT22;9854;50.968;4.168;2022-07-21T13:23:17;19.10;99.90
19437;DHT22;9854;50.968;4.168;2022-07-21T13:25:43;19.30;99.90
19437;DHT22;9854;50.968;4.168;2022-07-21T13:28:09;19.50;99.90
19437;DHT22;9854;50.968;4.168;2022-07-21T13:30:34;19.50;99.90
19437;DHT22;9854;50.968;4.168;2022-07-21T13:33:00;19.40;99.90
19437;DHT22;9854;50.968;4.168;2022-07-21T13:35:26;19.40;99.90
19437;DHT22;9854;50.968;4.168;2022-07-21T13:37:52;19.60;99.90
19437;DHT22;9854;50.968;4.168;2022-07-21T13:40:17;19.60;99.90
19437;DHT22;9854;50.968;4.168;2022-07-21T13:42:43;19.60;99.90
19437;DHT22;9854;50.968;4.168;2022-07-21T13:45:09;19.60;99.90
19437;DHT22;9854;50.968;4.168;2022-07-21T13:47:37;19.60;99.90
19437;DHT22;9854;50.968;4.168;2022-07-21T13:50:03;19.40;99.90
19437;DHT22;9854;50.968;4.168;2022-07-21T13:52:31;19.30;99.90
19437;DHT22;9854;50.968;4.168;2022-07-21T13:54:56;19.40;99.90
19437;DHT22;9854;50.968;4.168;2022-07-21T13:57:22;19.40;99.90
19437;DHT22;9854;50.968;4.168;2022-07-21T13:59:47;19.40;99.90
19437;DHT22;9854;50.968;4.168;2022-07-21T14:02:13;19.40;99.90
19437;DHT22;9854;50.968;4.168;2022-07-21T14:04:39;19.30;99.90
19437;DHT22;9854;50.968;4.168;2022-07-21T14:07:04;19.30;99.90
19437;DHT22;9854;50.968;4.168;2022-07-21T14:09:30;19.20;99.90
19437;DHT22;9854;50.968;4.168;2022-07-21T14:11:56;19.10;99.90
19437;DHT22;9854;50.968;4.168;2022-07-21T14:14:23;19.10;99.90
19437;DHT22;9854;50.968;4.168;2022-07-21T14:16:52;19.10;99.90
19437;DHT22;9854;50.968;4.168;2022-07-21T14:19:19;19.10;99.90
19437;DHT22;9854;50.968;4.168;2022-07-21T14:21:44;19.20;99.90
19437;DHT22;9854;50.968;4.168;2022-07-21T14:24:11;19.40;99.90
19437;DHT22;9854;50.968;4.168;2022-07-21T14:26:55;19.70;99.90
19437;DHT22;9854;50.968;4.168;2022-07-21T14:29:21;19.60;99.90
19437;DHT22;9854;50.968;4.168;2022-07-21T14:31:47;19.70;99.90
19437;DHT22;9854;50.968;4.168;2022-07-21T14:34:14;19.80;99.90
19437;DHT22;9854;50.968;4.168;2022-07-21T14:36:40;19.80;99.90
19437;DHT22;9854;50.968;4.168;2022-07-21T14:39:06;19.80;99.90
19437;DHT22;9854;50.968;4.168;2022-07-21T14:41:32;19.80;99.90
19437;DHT22;9854;50.968;4.168;2022-07-21T14:43:58;19.80;99.90
19437;DHT22;9854;50.968;4.168;2022-07-21T14:46:24;19.90;99.90
19437;DHT22;9854;50.968;4.168;2022-07-21T14:48:49;19.90;99.90
19437;DHT22;9854;50.968;4.168;2022-07-21T14:51:15;19.70;99.90
19437;DHT22;9854;50.968;4.168;2022-07-21T14:53:41;19.80;99.90
19437;DHT22;9854;50.968;4.168;2022-07-21T14:56:08;19.90;99.90
19437;DHT22;9854;50.968;4.168;2022-07-21T14:58:33;20.00;99.90
19437;DHT22;9854;50.968;4.168;2022-07-21T15:00:59;20.40;99.90
19437;DHT22;9854;50.968;4.168;2022-07-21T15:03:25;20.60;99.90
19437;DHT22;9854;50.968;4.168;2022-07-21T15:05:50;21.20;99.90
19437;DHT22;9854;50.968;4.168;2022-07-21T15:08:16;21.40;99.90
19437;DHT22;9854;50.968;4.168;2022-07-21T15:10:42;21.50;99.90
19437;DHT22;9854;50.968;4.168;2022-07-21T15:13:09;21.50;99.90
19437;DHT22;9854;50.968;4.168;2022-07-21T15:15:35;21.30;99.90
19437;DHT22;9854;50.968;4.168;2022-07-21T15:18:04;21.20;99.90
19437;DHT22;9854;50.968;4.168;2022-07-21T15:20:30;21.00;99.90
19437;DHT22;9854;50.968;4.168;2022-07-21T15:22:55;20.80;99.90
19437;DHT22;9854;50.968;4.168;2022-07-21T15:25:21;20.70;99.90
19437;DHT22;9854;50.968;4.168;2022-07-21T15:27:47;20.40;99.90
19437;DHT22;9854;50.968;4.168;2022-07-21T15:30:14;20.70;99.90
19437;DHT22;9854;50.968;4.168;2022-07-21T15:32:41;20.40;99.90
19437;DHT22;9854;50.968;4.168;2022-07-21T15:35:07;20.60;99.90
19437;DHT22;9854;50.968;4.168;2022-07-21T15:37:34;20.30;99.90
19437;DHT22;9854;50.968;4.168;2022-07-21T15:39:59;20.10;99.90
19437;DHT22;9854;50.968;4.168;2022-07-21T15:42:25;20.10;99.90
19437;DHT22;9854;50.968;4.168;2022-07-21T15:44:52;20.10;99.90
19437;DHT22;9854;50.968;4.168;2022-07-21T15:47:18;20.00;99.90
19437;DHT22;9854;50.968;4.168;2022-07-21T15:49:44;20.00;99.90
19437;DHT22;9854;50.968;4.168;2022-07-21T15:52:09;20.20;99.90
19437;DHT22;9854;50.968;4.168;2022-07-21T15:54:37;20.50;99.90
19437;DHT22;9854;50.968;4.168;2022-07-21T15:57:03;20.80;99.90
19437;DHT22;9854;50.968;4.168;2022-07-21T15:59:29;20.80;99.90
19437;DHT22;9854;50.968;4.168;2022-07-21T16:02:08;20.50;99.90
19437;DHT22;9854;50.968;4.168;2022-07-21T16:04:36;20.20;99.90
19437;DHT22;9854;50.968;4.168;2022-07-21T16:07:03;20.00;99.90
19437;DHT22;9854;50.968;4.168;2022-07-21T16:09:30;19.90;99.90
19437;DHT22;9854;50.968;4.168;2022-07-21T16:11:56;20.00;99.90
19437;DHT22;9854;50.968;4.168;2022-07-21T16:14:22;20.60;99.90
19437;DHT22;9854;50.968;4.168;2022-07-21T16:16:48;20.90;99.90
19437;DHT22;9854;50.968;4.168;2022-07-21T16:19:14;20.90;99.90
19437;DHT22;9854;50.968;4.168;2022-07-21T16:21:40;21.00;99.90